Flight Track Log - Related Links

Times and Time Zones

All times are in EDT time to prevent confusion due to time zone crossing. See the ASQ5745 flight status page for this flight to view local times or setup timezone preferences in your user account.

Time Position Orientation Groundspeed Altitude Reporting Facility
EDT Latitude Longitude Course Direction KTS MPH feet Rate Location/Type
Tue 08:26:12 AM 38.9667 -77.4500 350° North 176 203 2,000  Level Potomac TRACON
Tue 08:28:18 AM 39.1050 -77.4800 350° North 244 281 6,700 2,413 Climbing Washington Center
Tue 08:29:16 AM 39.1819 -77.4794 360° North 258 297 9,400 2,370 Climbing Washington Center
Tue 08:30:17 AM 39.2614 -77.4761 North 270 311 11,400 1,686 Climbing Washington Center
Tue 08:31:17 AM 39.3489 -77.4703 North 295 339 12,800 1,350 Climbing Washington Center
Tue 08:32:17 AM 39.4469 -77.4675 North 322 371 14,100 1,339 Climbing Washington Center
Tue 08:33:18 AM 39.5450 -77.4619 North 340 391 15,500 1,385 Climbing Washington Center
Tue 08:34:53 AM 39.7111 -77.4586 North 367 422 17,700 1,231 Climbing New York Center
Tue 08:35:54 AM 39.8114 -77.4547 North 367 422 18,700 1,091 Climbing New York Center
Tue 08:36:54 AM 39.9083 -77.4042 22° Northeast 359 413 19,900 650 Climbing New York Center
Tue 08:37:54 AM 40.0053 -77.3483 24° Northeast 371 427 20,000 650 Climbing New York Center
Tue 08:38:54 AM 40.1064 -77.2928 23° Northeast 384 442 21,200 1,339 Climbing New York Center
Tue 08:39:55 AM 40.2117 -77.2347 23° Northeast 384 442 22,700 1,230 Climbing New York Center
Tue 08:40:56 AM 40.3064 -77.1811 23° Northeast 378 435 23,700 1,008 Climbing New York Center
Tue 08:41:54 AM 40.4028 -77.1300 22° Northeast 372 428 24,700 1,008 Climbing New York Center
Tue 08:42:55 AM 40.5017 -77.0761 23° Northeast 372 428 25,700 1,000 Climbing New York Center
Tue 08:43:54 AM 40.5981 -77.0250 22° Northeast 372 428 26,700 800 Climbing New York Center
Tue 08:44:55 AM 40.6992 -76.9656 24° Northeast 372 428 27,300 590 Climbing New York Center
Tue 08:45:56 AM 40.8000 -76.9117 22° Northeast 377 434 27,900 605 Climbing New York Center
Tue 08:46:54 AM 40.9031 -76.8525 23° Northeast 390 449 28,500 559 Climbing New York Center
Tue 08:47:54 AM 41.0081 -76.7958 22° Northeast 396 456 29,000 248 Climbing New York Center
Tue 08:48:55 AM 41.1133 -76.7361 23° Northeast 402 463 29,000  Level New York Center
Tue 08:49:55 AM 41.2203 -76.6767 23° Northeast 407 468 29,000  Level New York Center
Tue 08:50:56 AM 41.3231 -76.6194 23° Northeast 402 463 29,000  Level New York Center
Tue 08:51:54 AM 41.4217 -76.5642 23° Northeast 392 451 29,000 -805 Level New York Center
Tue 08:53:40 AM 41.5908 -76.4681 23° Northeast 384 442 26,800 -1,627 Descending Boston Center
Tue 08:54:40 AM 41.6908 -76.4106 23° Northeast 384 442 24,500 -1,400 Descending Boston Center
Tue 08:55:40 AM 41.7528 -76.3031 52° Northeast 372 428 24,000 -250 Descending Boston Center
Tue 08:56:40 AM 41.8050 -76.1836 60° Northeast 355 409 24,000  Level Boston Center
Tue 08:57:40 AM 41.8547 -76.0583 62° Northeast 366 421 24,000  Level Boston Center
Tue 08:58:40 AM 41.9067 -75.9328 61° Northeast 373 429 24,000  Level Boston Center
Tue 08:59:40 AM 41.9561 -75.8128 61° Northeast 373 429 24,000  Level Boston Center
Tue 09:00:40 AM 42.0078 -75.6897 61° Northeast 373 429 24,000  Level Boston Center
Tue 09:01:40 AM 42.0572 -75.5664 62° Northeast 368 423 24,000  Level Boston Center
Tue 09:02:40 AM 42.1064 -75.4458 61° Northeast 362 417 24,000  Level Boston Center
Tue 09:03:40 AM 42.1533 -75.3219 63° Northeast 362 417 24,000  Level Boston Center
Tue 09:04:40 AM 42.2000 -75.2036 62° Northeast 362 417 24,000 -1,150 Level Boston Center
Tue 09:05:40 AM 42.2531 -75.0742 61° Northeast 357 411 21,700 -2,150 Descending Boston Center
Tue 09:06:40 AM 42.2994 -74.9553 62° Northeast 357 411 19,700 -1,850 Descending Boston Center
Tue 09:07:40 AM 42.3414 -74.8475 62° Northeast 362 417 18,000 -1,742 Descending Boston Center
Tue 09:08:13 AM 42.3681 -74.7808 62° Northeast 344 396 17,000 -1,881 Descending Boston Center
Tue 09:09:38 AM 42.4317 -74.6172 62° Northeast 330 380 14,300 -1,856 Descending Boston Center
Tue 09:10:32 AM 42.4708 -74.5203 61° Northeast 323 372 12,700 -1,692 Descending Boston Center
Tue 09:11:35 AM 42.4981 -74.4056 72° East 311 358 11,000 -1,641 Descending Boston Center
Tue 09:12:40 AM 42.5186 -74.2992 75° East 295 339 9,200 -1,968 Descending Boston Center
Tue 09:13:40 AM 42.5453 -74.1958 71° East 279 321 6,900 -2,150 Descending Boston Center
Tue 09:14:40 AM 42.5697 -74.0892 73° East 272 313 4,900 -1,967 Descending Boston Center
Tue 09:14:41 AM 42.5697 -74.0892 73° East 270 311 4,900 -1,400 Level Boston Center
Tue 09:15:40 AM 42.5897 -73.9997 73° East 260 299 3,500 -730 Descending Boston Center
Tue 09:16:36 AM 42.6075 -73.9294 71° East 198 228 3,500 -359 Level Boston Center
Tue 09:17:37 AM 42.6272 -73.8511 71° East 208 239 2,800 -793 Descending Boston Center
Tue 09:18:37 AM 42.6611 -73.8067 44° Northeast 186 214 1,900 -900 Descending Boston Center

Login

Don't have an account? Register now (free) for customized features, flight alerts, and more!